Time;durP1;ratioP1;P1;durP2;ratioP2;P2;SDS_P1;SDS_P2;PMS_P1;PMS_P2;Temp;Humidity;BMP_temperature;BMP_pressure;BME280_temperature;BME280_humidity;BME280_pressure;Samples;Min_cycle;Max_cycle;Signal;HPM_P1;HPM_P2
2024/04/15 00:00:23;;;;;;;;;1.00;1.00;;;;;;;;5444555;26;8923;-87
2024/04/15 00:02:52;;;;;;;;;1.00;1.00;;;;;;;;5433058;26;8820;-87
2024/04/15 00:05:21;;;;;;;;;0.75;0.75;;;;;;;;5449935;26;9771;-88
2024/04/15 00:07:52;;;;;;;;;2.67;1.00;;;;;;;;5449666;26;8935;-87
2024/04/15 00:10:21;;;;;;;;;1.00;1.00;;;;;;;;5450198;26;8916;-87
2024/04/15 00:12:49;;;;;;;;;1.00;1.00;;;;;;;;5429124;26;9034;-88
2024/04/15 00:15:23;;;;;;;;;1.00;1.00;;;;;;;;5450354;26;8944;-87
2024/04/15 00:17:52;;;;;;;;;1.00;1.00;;;;;;;;5442583;26;8889;-87
2024/04/15 00:20:21;;;;;;;;;1.00;1.00;;;;;;;;5443765;26;8928;-88
2024/04/15 00:22:47;;;;;;;;;2.00;0.33;;;;;;;;5451526;26;9003;-88
2024/04/15 00:25:16;;;;;;;;;1.00;1.00;;;;;;;;5435567;26;8939;-88
2024/04/15 00:27:43;;;;;;;;;2.00;2.00;;;;;;;;5449387;26;9031;-87
2024/04/15 00:30:12;;;;;;;;;0.50;0.00;;;;;;;;5431171;26;9030;-87
2024/04/15 00:32:47;;;;;;;;;2.00;2.00;;;;;;;;5447396;26;8852;-87
2024/04/15 00:35:19;;;;;;;;;0.33;0.33;;;;;;;;5449374;26;9058;-87
2024/04/15 00:37:45;;;;;;;;;0.00;0.00;;;;;;;;5449256;26;9027;-87
2024/04/15 00:40:14;;;;;;;;;0.00;0.00;;;;;;;;5449000;26;8995;-88
2024/04/15 00:42:43;;;;;;;;;1.00;1.00;;;;;;;;5449764;26;8913;-87
2024/04/15 00:45:30;;;;;;;;;1.00;1.00;;;;;;;;5449789;26;9060;-88
2024/04/15 00:47:56;;;;;;;;;1.00;1.00;;;;;;;;5450709;26;9092;-88
2024/04/15 00:50:32;;;;;;;;;2.33;1.00;;;;;;;;5453676;26;9181;-86
2024/04/15 00:53:01;;;;;;;;;0.00;0.00;;;;;;;;5452385;26;9184;-88
2024/04/15 00:55:36;;;;;;;;;4.33;1.00;;;;;;;;5451073;26;9257;-91
2024/04/15 00:58:02;;;;;;;;;0.33;0.33;;;;;;;;5447837;26;9229;-88
2024/04/15 01:00:32;;;;;;;;;0.33;0.33;;;;;;;;5449443;26;9014;-87
2024/04/15 01:02:58;;;;;;;;;1.00;1.00;;;;;;;;5429645;26;9267;-88
2024/04/15 01:05:33;;;;;;;;;2.00;0.00;;;;;;;;5449348;26;9394;-87
2024/04/15 01:07:59;;;;;;;;;1.00;1.00;;;;;;;;5429788;26;9467;-88
2024/04/15 01:10:28;;;;;;;;;0.25;0.25;;;;;;;;5446948;26;9511;-90
2024/04/15 01:12:54;;;;;;;;;1.00;1.00;;;;;;;;5431340;26;9647;-88
2024/04/15 01:15:23;;;;;;;;;0.25;0.25;;;;;;;;5448194;26;9716;-89
2024/04/15 01:17:49;;;;;;;;;1.00;1.00;;;;;;;;5451868;26;9773;-90
2024/04/15 01:20:18;;;;;;;;;0.50;0.50;;;;;;;;5455640;26;9880;-90
2024/04/15 01:22:54;;;;;;;;;0.50;0.50;;;;;;;;5455739;26;10099;-89
2024/04/15 01:25:29;;;;;;;;;1.50;0.75;;;;;;;;5457245;26;9846;-91
2024/04/15 01:27:56;;;;;;;;;0.00;0.00;;;;;;;;5457376;26;10105;-90
2024/04/15 01:30:25;;;;;;;;;2.00;0.50;;;;;;;;5455567;26;9731;-89
2024/04/15 01:32:52;;;;;;;;;0.00;0.00;;;;;;;;5457089;26;10028;-89
2024/04/15 01:35:20;;;;;;;;;0.50;0.50;;;;;;;;5453061;26;9925;-89
2024/04/15 01:37:48;;;;;;;;;0.00;0.00;;;;;;;;5451538;26;10177;-88
2024/04/15 01:40:18;;;;;;;;;1.00;1.00;;;;;;;;5451808;26;10050;-89
2024/04/15 01:42:47;;;;;;;;;2.00;2.00;;;;;;;;5451982;26;9903;-87
2024/04/15 01:45:16;;;;;;;;;0.50;0.50;;;;;;;;5449738;26;10020;-88
2024/04/15 01:47:44;;;;;;;;;3.00;1.75;;;;;;;;5450049;26;10001;-88
2024/04/15 01:50:13;;;;;;;;;1.00;1.00;;;;;;;;5451429;26;10104;-89
2024/04/15 01:52:43;;;;;;;;;1.75;1.75;;;;;;;;5451571;26;10148;-90
2024/04/15 01:55:15;;;;;;;;;1.00;1.00;;;;;;;;5452665;26;10866;-89
2024/04/15 01:57:42;;;;;;;;;1.75;1.50;;;;;;;;5451682;26;9893;-88
2024/04/15 02:00:17;;;;;;;;;1.00;1.00;;;;;;;;5450247;26;10086;-88
2024/04/15 02:02:43;;;;;;;;;1.75;1.75;;;;;;;;5453373;26;10150;-89
2024/04/15 02:05:12;;;;;;;;;2.25;2.25;;;;;;;;5451801;26;10264;-89
2024/04/15 02:07:40;;;;;;;;;2.00;2.00;;;;;;;;5450115;26;10208;-88
2024/04/15 02:10:12;;;;;;;;;2.00;2.00;;;;;;;;5452145;26;10263;-88
2024/04/15 02:12:39;;;;;;;;;2.25;2.25;;;;;;;;5450591;26;10315;-88
2024/04/15 02:15:08;;;;;;;;;0.00;0.00;;;;;;;;5451808;26;10335;-89
2024/04/15 02:17:39;;;;;;;;;1.00;1.00;;;;;;;;5449237;26;10305;-88
2024/04/15 02:20:09;;;;;;;;;1.00;1.00;;;;;;;;5450171;26;10331;-88
2024/04/15 02:22:35;;;;;;;;;1.00;1.00;;;;;;;;5451898;26;10265;-88
2024/04/15 02:25:06;;;;;;;;;2.75;2.50;;;;;;;;5449673;26;10311;-88
2024/04/15 02:27:35;;;;;;;;;1.00;1.00;;;;;;;;5452050;26;10182;-88
2024/04/15 02:30:05;;;;;;;;;1.00;1.00;;;;;;;;5451515;26;10240;-89
2024/04/15 02:32:31;;;;;;;;;3.00;1.00;;;;;;;;5451469;26;11040;-88
2024/04/15 02:35:03;;;;;;;;;2.00;0.50;;;;;;;;5450876;26;10362;-88
2024/04/15 02:37:29;;;;;;;;;0.75;0.75;;;;;;;;5452089;26;10268;-87
2024/04/15 02:39:58;;;;;;;;;1.50;1.00;;;;;;;;5451946;26;10243;-89
2024/04/15 02:42:24;;;;;;;;;0.00;0.00;;;;;;;;5452482;26;10393;-89
2024/04/15 02:44:54;;;;;;;;;1.25;1.25;;;;;;;;5451290;26;10529;-88
2024/04/15 02:47:20;;;;;;;;;1.25;1.25;;;;;;;;5451551;26;10572;-89
2024/04/15 02:49:49;;;;;;;;;2.00;2.00;;;;;;;;5450968;26;10546;-88
2024/04/15 02:52:18;;;;;;;;;3.00;1.00;;;;;;;;5448989;26;10590;-88
2024/04/15 02:54:47;;;;;;;;;1.75;1.75;;;;;;;;5450999;26;10588;-90
2024/04/15 02:57:13;;;;;;;;;3.50;2.25;;;;;;;;5452029;26;10591;-90
2024/04/15 02:59:42;;;;;;;;;4.25;0.75;;;;;;;;5452580;26;10602;-90
2024/04/15 03:02:09;;;;;;;;;5.00;1.00;;;;;;;;5452225;26;10308;-90
2024/04/15 03:04:38;;;;;;;;;1.00;1.00;;;;;;;;5453720;26;10647;-89
2024/04/15 03:07:04;;;;;;;;;2.00;1.50;;;;;;;;5451727;26;10635;-91
2024/04/15 03:09:36;;;;;;;;;2.00;2.00;;;;;;;;5454164;26;10466;-91
2024/04/15 03:12:03;;;;;;;;;2.75;2.00;;;;;;;;5452963;26;10585;-90
2024/04/15 03:14:34;;;;;;;;;3.00;1.00;;;;;;;;5436116;26;10622;-90
2024/04/15 03:17:01;;;;;;;;;1.00;1.00;;;;;;;;5434836;26;10527;-88
2024/04/15 03:19:32;;;;;;;;;2.75;0.00;;;;;;;;5451931;26;10595;-89
2024/04/15 03:21:59;;;;;;;;;1.50;1.50;;;;;;;;5451213;26;10511;-90
2024/04/15 03:24:29;;;;;;;;;0.75;0.75;;;;;;;;5454998;26;10530;-86
2024/04/15 03:26:59;;;;;;;;;1.00;1.00;;;;;;;;5454756;26;10407;-88
2024/04/15 03:29:27;;;;;;;;;2.50;1.25;;;;;;;;5451072;26;10375;-88
2024/04/15 03:31:54;;;;;;;;;0.75;0.75;;;;;;;;5450343;26;10421;-89
2024/04/15 03:34:23;;;;;;;;;2.25;1.75;;;;;;;;5450302;26;11311;-88
2024/04/15 03:36:51;;;;;;;;;2.75;2.75;;;;;;;;5450557;26;11343;-89
2024/04/15 03:39:20;;;;;;;;;1.25;1.00;;;;;;;;5449331;26;10740;-88
2024/04/15 03:41:49;;;;;;;;;1.00;1.00;;;;;;;;5450347;26;10476;-87
2024/04/15 03:44:18;;;;;;;;;2.00;2.00;;;;;;;;5432606;26;10598;-88
2024/04/15 03:46:47;;;;;;;;;1.00;1.00;;;;;;;;5452127;26;10615;-86
2024/04/15 03:49:13;;;;;;;;;2.00;1.00;;;;;;;;5453848;26;10565;-90
2024/04/15 03:51:44;;;;;;;;;1.50;1.50;;;;;;;;5451920;26;10636;-89
2024/04/15 03:54:14;;;;;;;;;1.00;1.00;;;;;;;;5453509;26;10635;-86
2024/04/15 03:56:43;;;;;;;;;1.00;1.00;;;;;;;;5456035;26;10648;-83
2024/04/15 03:59:09;;;;;;;;;2.00;1.00;;;;;;;;5450925;26;10764;-91
2024/04/15 04:01:43;;;;;;;;;4.00;2.00;;;;;;;;5449711;26;10594;-85
2024/04/15 04:04:11;;;;;;;;;1.75;1.75;;;;;;;;5450435;26;10859;-89
2024/04/15 04:06:43;;;;;;;;;3.75;2.00;;;;;;;;5449975;26;10927;-86
2024/04/15 04:09:09;;;;;;;;;3.00;1.75;;;;;;;;5451720;26;11089;-90
2024/04/15 04:11:38;;;;;;;;;5.00;5.00;;;;;;;;5451626;26;10769;-86
2024/04/15 04:14:05;;;;;;;;;5.75;5.75;;;;;;;;5449026;26;11110;-86
2024/04/15 04:16:34;;;;;;;;;4.00;4.00;;;;;;;;5450099;26;11180;-87
2024/04/15 04:19:03;;;;;;;;;6.75;4.75;;;;;;;;5449645;26;10945;-88
2024/04/15 04:21:32;;;;;;;;;6.75;4.25;;;;;;;;5449034;26;11120;-87
2024/04/15 04:24:00;;;;;;;;;3.75;3.75;;;;;;;;5450102;26;11194;-88
2024/04/15 04:26:29;;;;;;;;;3.00;3.00;;;;;;;;5435960;26;11128;-87
2024/04/15 04:28:59;;;;;;;;;3.00;3.00;;;;;;;;5450117;26;11086;-89
2024/04/15 04:31:29;;;;;;;;;5.75;4.00;;;;;;;;5441690;26;10883;-89
2024/04/15 04:33:55;;;;;;;;;2.25;2.25;;;;;;;;5440870;26;11038;-88
2024/04/15 04:36:29;;;;;;;;;3.00;3.00;;;;;;;;5451279;26;11015;-86
2024/04/15 04:38:56;;;;;;;;;3.50;2.00;;;;;;;;5445726;26;11109;-88
2024/04/15 04:41:25;;;;;;;;;2.50;2.00;;;;;;;;5445674;26;10862;-86
2024/04/15 04:43:51;;;;;;;;;2.75;2.50;;;;;;;;5450725;26;10993;-88
2024/04/15 05:13:30;;;;;;;;;10.75;5.50;;;;;;;;5533830;25;13378;-81
2024/04/15 05:16:03;;;;;;;;;9.50;8.00;;;;;;;;5520849;25;11500;-79
2024/04/15 05:18:31;;;;;;;;;3.00;3.00;;;;;;;;5530898;25;11553;-79
2024/04/15 05:21:02;;;;;;;;;7.75;5.75;;;;;;;;5519155;25;11538;-76
2024/04/15 05:23:34;;;;;;;;;6.50;5.00;;;;;;;;5516308;25;11257;-74
2024/04/15 05:26:03;;;;;;;;;8.50;5.25;;;;;;;;5531860;25;11521;-80
2024/04/15 05:28:35;;;;;;;;;5.50;4.25;;;;;;;;5530799;25;11527;-80
2024/04/15 05:31:02;;;;;;;;;8.25;5.00;;;;;;;;5479382;25;11246;-80
2024/04/15 05:33:37;;;;;;;;;4.50;4.50;;;;;;;;5465443;26;11552;-80
2024/04/15 05:36:09;;;;;;;;;7.00;6.00;;;;;;;;5465799;26;11510;-79
2024/04/15 05:38:39;;;;;;;;;4.75;4.00;;;;;;;;5466551;26;11471;-80
2024/04/15 05:41:05;;;;;;;;;6.50;5.00;;;;;;;;5465652;26;11499;-80
2024/04/15 05:43:43;;;;;;;;;5.75;5.75;;;;;;;;5466396;26;11530;-80
2024/04/15 05:46:10;;;;;;;;;5.00;4.50;;;;;;;;5460423;26;11483;-80
2024/04/15 05:48:39;;;;;;;;;4.25;4.25;;;;;;;;5464711;26;11596;-79
2024/04/15 05:51:06;;;;;;;;;10.75;6.00;;;;;;;;5462300;26;11551;-81
2024/04/15 05:53:34;;;;;;;;;9.25;5.00;;;;;;;;5458065;26;11568;-81
2024/04/15 05:56:01;;;;;;;;;5.75;4.00;;;;;;;;5455753;26;11501;-79
2024/04/15 05:58:30;;;;;;;;;5.00;5.00;;;;;;;;5466751;26;11237;-81
2024/04/15 06:01:01;;;;;;;;;7.00;3.25;;;;;;;;5466235;25;11046;-82
2024/04/15 06:03:30;;;;;;;;;6.00;6.00;;;;;;;;5465814;26;11460;-81
2024/04/15 06:05:56;;;;;;;;;8.00;5.00;;;;;;;;5466263;26;11509;-82
2024/04/15 06:08:25;;;;;;;;;5.50;5.50;;;;;;;;5443290;26;11500;-82
2024/04/15 06:10:52;;;;;;;;;6.75;4.00;;;;;;;;5466206;26;11237;-82
2024/04/15 06:13:21;;;;;;;;;6.50;5.00;;;;;;;;5463960;26;11115;-81
2024/04/15 06:15:48;;;;;;;;;5.00;5.00;;;;;;;;5466217;26;11184;-80
2024/04/15 06:18:20;;;;;;;;;11.50;10.00;;;;;;;;5457773;26;11200;-80
2024/04/15 06:20:46;;;;;;;;;7.00;4.25;;;;;;;;5453285;26;11601;-79
2024/04/15 06:23:15;;;;;;;;;7.00;7.00;;;;;;;;5459176;26;11125;-80
2024/04/15 06:25:41;;;;;;;;;9.50;9.50;;;;;;;;5450904;26;11649;-81
2024/04/15 06:28:10;;;;;;;;;10.50;5.50;;;;;;;;5450435;26;11190;-80
2024/04/15 06:30:37;;;;;;;;;8.75;8.75;;;;;;;;5449770;26;10892;-78
2024/04/15 06:33:06;;;;;;;;;16.00;11.75;;;;;;;;5449479;26;11094;-80
2024/04/15 06:35:35;;;;;;;;;14.50;11.25;;;;;;;;5450519;26;11215;-80
2024/04/15 06:38:04;;;;;;;;;11.75;11.75;;;;;;;;5450265;26;10999;-78
2024/04/15 06:40:32;;;;;;;;;15.25;15.25;;;;;;;;5446865;26;11552;-78
2024/04/15 06:43:01;;;;;;;;;18.00;13.75;;;;;;;;5451072;26;11526;-78
2024/04/15 06:45:27;;;;;;;;;15.75;14.00;;;;;;;;5451239;26;11517;-77
2024/04/15 06:47:58;;;;;;;;;9.00;7.50;;;;;;;;5449494;26;12358;-78
2024/04/15 06:50:27;;;;;;;;;16.00;13.25;;;;;;;;5449826;26;11491;-79
2024/04/15 06:53:00;;;;;;;;;11.75;10.50;;;;;;;;5450035;26;11078;-78
2024/04/15 06:55:27;;;;;;;;;12.25;8.75;;;;;;;;5452054;26;12084;-78
2024/04/15 06:57:56;;;;;;;;;10.75;9.25;;;;;;;;5435347;26;11251;-79
2024/04/15 07:00:22;;;;;;;;;10.00;8.50;;;;;;;;5442417;26;11189;-82
2024/04/15 07:02:54;;;;;;;;;7.75;7.50;;;;;;;;5444151;26;11060;-79
2024/04/15 07:05:20;;;;;;;;;9.75;7.50;;;;;;;;5429094;26;11169;-80
2024/04/15 07:07:52;;;;;;;;;8.75;8.75;;;;;;;;5449583;26;11098;-81
2024/04/15 07:10:21;;;;;;;;;6.50;6.50;;;;;;;;5449211;26;11329;-81
2024/04/15 07:12:50;;;;;;;;;7.50;7.50;;;;;;;;5429767;26;11240;-79
2024/04/15 07:15:16;;;;;;;;;9.00;6.50;;;;;;;;5437863;26;11047;-79
2024/04/15 07:17:45;;;;;;;;;8.25;5.00;;;;;;;;5420570;26;10911;-79
2024/04/15 07:20:12;;;;;;;;;7.50;5.00;;;;;;;;5417713;26;10928;-82
2024/04/15 07:22:41;;;;;;;;;6.50;5.75;;;;;;;;5442338;26;11089;-77
2024/04/15 07:25:07;;;;;;;;;9.00;7.00;;;;;;;;5419883;26;10965;-78
2024/04/15 07:27:39;;;;;;;;;8.00;5.75;;;;;;;;5444571;26;10914;-82
2024/04/15 07:30:06;;;;;;;;;4.00;4.00;;;;;;;;5423135;26;10939;-80
2024/04/15 07:32:35;;;;;;;;;3.00;3.00;;;;;;;;5425947;26;10885;-79
2024/04/15 07:35:04;;;;;;;;;4.25;3.75;;;;;;;;5447882;26;10872;-78
2024/04/15 07:37:36;;;;;;;;;2.00;2.00;;;;;;;;5426120;26;10775;-76
2024/04/15 07:40:02;;;;;;;;;2.00;2.00;;;;;;;;5435518;26;10637;-80
2024/04/15 07:42:31;;;;;;;;;2.00;2.00;;;;;;;;5443859;26;10632;-79
2024/04/15 07:45:00;;;;;;;;;4.50;2.75;;;;;;;;5436594;26;10562;-79
2024/04/15 07:47:29;;;;;;;;;4.00;2.25;;;;;;;;5428793;26;11568;-80
2024/04/15 07:49:55;;;;;;;;;2.25;2.25;;;;;;;;5430621;26;10831;-81
2024/04/15 07:52:24;;;;;;;;;4.00;2.00;;;;;;;;5430361;26;10690;-81
2024/04/15 07:54:51;;;;;;;;;4.25;2.00;;;;;;;;5448614;26;10845;-81
2024/04/15 07:57:20;;;;;;;;;2.75;2.75;;;;;;;;5421713;26;10715;-81
2024/04/15 07:59:47;;;;;;;;;6.50;3.25;;;;;;;;5439759;26;10570;-81
2024/04/15 08:02:19;;;;;;;;;2.75;2.75;;;;;;;;5425941;26;10462;-81
2024/04/15 08:04:50;;;;;;;;;3.25;3.00;;;;;;;;5448816;26;10574;-80
2024/04/15 08:07:16;;;;;;;;;1.75;1.75;;;;;;;;5448875;26;10399;-81
2024/04/15 08:09:45;;;;;;;;;1.75;1.75;;;;;;;;5448955;26;10456;-81
2024/04/15 08:12:11;;;;;;;;;0.00;0.00;;;;;;;;5449440;26;10478;-81
2024/04/15 08:14:40;;;;;;;;;1.00;1.00;;;;;;;;5449099;26;10149;-82
2024/04/15 08:17:07;;;;;;;;;1.50;1.50;;;;;;;;5449948;26;10101;-81
2024/04/15 08:19:41;;;;;;;;;1.75;1.75;;;;;;;;5429723;26;10049;-80
2024/04/15 08:22:07;;;;;;;;;2.50;1.00;;;;;;;;5451328;26;10314;-83
2024/04/15 08:24:36;;;;;;;;;2.00;2.00;;;;;;;;5446030;26;10135;-83
2024/04/15 08:27:05;;;;;;;;;1.75;1.75;;;;;;;;5436148;26;10083;-82
2024/04/15 08:29:34;;;;;;;;;1.00;1.00;;;;;;;;5445318;26;10078;-81
2024/04/15 08:32:00;;;;;;;;;1.00;1.00;;;;;;;;5435209;26;9607;-80
2024/04/15 08:34:29;;;;;;;;;0.50;0.50;;;;;;;;5448031;26;9584;-79
2024/04/15 08:37:00;;;;;;;;;1.00;1.00;;;;;;;;5429729;26;9649;-80
2024/04/15 08:39:29;;;;;;;;;1.00;1.00;;;;;;;;5448556;26;9528;-80
2024/04/15 08:42:02;;;;;;;;;1.50;0.00;;;;;;;;5447943;26;9556;-79
2024/04/15 08:44:31;;;;;;;;;0.00;0.00;;;;;;;;5447799;26;9631;-80
2024/04/15 08:47:00;;;;;;;;;0.25;0.25;;;;;;;;5447120;26;9400;-79
2024/04/15 08:49:30;;;;;;;;;0.00;0.00;;;;;;;;5428863;26;9451;-80
2024/04/15 08:51:59;;;;;;;;;1.00;1.00;;;;;;;;5447375;26;9627;-78
2024/04/15 08:54:28;;;;;;;;;0.00;0.00;;;;;;;;5447637;26;9615;-79
2024/04/15 08:56:56;;;;;;;;;0.00;0.00;;;;;;;;5447341;26;9707;-79
2024/04/15 08:59:25;;;;;;;;;1.00;0.00;;;;;;;;5447696;26;9750;-78
2024/04/15 09:01:53;;;;;;;;;0.50;0.50;;;;;;;;5424605;26;10475;-79
2024/04/15 09:04:25;;;;;;;;;0.00;0.00;;;;;;;;5448241;26;9635;-80
2024/04/15 09:06:52;;;;;;;;;1.00;1.00;;;;;;;;5417818;26;10396;-79
2024/04/15 09:09:23;;;;;;;;;4.00;1.00;;;;;;;;5433816;26;9617;-80
2024/04/15 09:11:50;;;;;;;;;1.00;1.00;;;;;;;;5446771;26;9563;-81
2024/04/15 09:14:19;;;;;;;;;0.75;0.75;;;;;;;;5447732;26;9507;-79
2024/04/15 09:16:45;;;;;;;;;0.67;0.67;;;;;;;;5415792;26;9474;-80
2024/04/15 09:19:14;;;;;;;;;0.00;0.00;;;;;;;;5436176;26;9309;-79
2024/04/15 09:21:43;;;;;;;;;2.00;1.00;;;;;;;;5425792;26;9375;-80
2024/04/15 09:24:13;;;;;;;;;0.00;0.00;;;;;;;;5448216;26;9469;-81
2024/04/15 09:26:44;;;;;;;;;2.33;0.67;;;;;;;;5437734;26;10239;-80
2024/04/15 09:29:13;;;;;;;;;0.00;0.00;;;;;;;;5421612;26;9341;-80
2024/04/15 09:31:39;;;;;;;;;1.00;1.00;;;;;;;;5414146;26;9179;-80
2024/04/15 09:34:08;;;;;;;;;0.67;0.67;;;;;;;;5438158;26;9145;-80
2024/04/15 09:36:37;;;;;;;;;2.00;0.00;;;;;;;;5415618;26;9098;-80
2024/04/15 09:39:07;;;;;;;;;0.00;0.00;;;;;;;;5439149;26;9061;-80
2024/04/15 09:41:37;;;;;;;;;0.00;0.00;;;;;;;;5416169;26;9753;-80
2024/04/15 09:44:07;;;;;;;;;0.00;0.00;;;;;;;;5420138;26;9025;-80
2024/04/15 09:46:36;;;;;;;;;2.00;1.00;;;;;;;;5417869;26;9094;-80
2024/04/15 09:49:06;;;;;;;;;0.00;0.00;;;;;;;;5422737;26;9013;-80
2024/04/15 09:51:36;;;;;;;;;1.00;1.00;;;;;;;;5418643;26;9095;-79
2024/04/15 09:54:08;;;;;;;;;1.00;0.00;;;;;;;;5443752;26;9198;-81
2024/04/15 09:56:45;;;;;;;;;1.00;1.00;;;;;;;;5431058;26;9036;-80
2024/04/15 09:59:15;;;;;;;;;1.00;0.00;;;;;;;;5450315;26;9009;-80
2024/04/15 10:01:45;;;;;;;;;0.00;0.00;;;;;;;;5452465;26;9826;-80
2024/04/15 10:04:20;;;;;;;;;0.00;0.00;;;;;;;;5452563;26;9040;-81
2024/04/15 10:06:51;;;;;;;;;0.00;0.00;;;;;;;;5453522;26;8893;-82
2024/04/15 10:09:21;;;;;;;;;1.50;0.50;;;;;;;;5454090;26;8836;-80
2024/04/15 10:11:54;;;;;;;;;1.50;0.75;;;;;;;;5431700;26;8928;-80
2024/04/15 10:14:23;;;;;;;;;0.00;0.00;;;;;;;;5453485;26;9568;-79
2024/04/15 10:16:58;;;;;;;;;0.00;0.00;;;;;;;;5432514;26;9600;-80
2024/04/15 10:19:25;;;;;;;;;0.00;0.00;;;;;;;;5450172;26;8824;-80
2024/04/15 10:21:53;;;;;;;;;0.25;0.25;;;;;;;;5436110;26;9625;-80
2024/04/15 10:24:22;;;;;;;;;1.00;1.00;;;;;;;;5449987;26;8887;-80
2024/04/15 10:26:54;;;;;;;;;0.00;0.00;;;;;;;;5437083;26;8831;-79
2024/04/15 10:29:26;;;;;;;;;0.25;0.00;;;;;;;;5449570;26;8835;-78
2024/04/15 10:31:56;;;;;;;;;0.00;0.00;;;;;;;;5449027;26;8803;-78
2024/04/15 10:34:23;;;;;;;;;0.00;0.00;;;;;;;;5428479;26;8789;-79
2024/04/15 10:36:56;;;;;;;;;0.00;0.00;;;;;;;;5441149;26;8944;-80
2024/04/15 10:39:24;;;;;;;;;0.00;0.00;;;;;;;;5425427;26;9053;-80
2024/04/15 10:41:53;;;;;;;;;2.00;0.00;;;;;;;;5427372;26;9188;-78
2024/04/15 10:44:22;;;;;;;;;0.00;0.00;;;;;;;;5438274;26;9933;-80
2024/04/15 10:46:51;;;;;;;;;1.00;0.00;;;;;;;;5444879;26;9211;-80
2024/04/15 10:49:17;;;;;;;;;1.00;1.00;;;;;;;;5437005;26;9169;-79
2024/04/15 10:51:47;;;;;;;;;0.00;0.00;;;;;;;;5445808;26;9122;-78
2024/04/15 10:54:13;;;;;;;;;0.00;0.00;;;;;;;;5435121;26;8939;-79
2024/04/15 10:56:44;;;;;;;;;0.00;0.00;;;;;;;;5426650;26;8932;-76
2024/04/15 10:59:13;;;;;;;;;0.00;0.00;;;;;;;;5436043;26;8893;-80
2024/04/15 11:01:45;;;;;;;;;0.67;0.67;;;;;;;;5425677;26;8919;-79
2024/04/15 11:04:12;;;;;;;;;0.00;0.00;;;;;;;;5432251;26;8921;-76
2024/04/15 11:06:41;;;;;;;;;2.00;1.00;;;;;;;;5425065;26;8843;-77
2024/04/15 11:09:08;;;;;;;;;2.00;0.00;;;;;;;;5433516;26;8986;-82
2024/04/15 11:11:39;;;;;;;;;0.00;0.00;;;;;;;;5429911;26;8913;-83
2024/04/15 11:14:12;;;;;;;;;0.00;0.00;;;;;;;;5450495;26;8836;-82
2024/04/15 11:16:48;;;;;;;;;0.00;0.00;;;;;;;;5423726;26;8991;-82
2024/04/15 11:19:16;;;;;;;;;0.67;0.67;;;;;;;;5420523;26;9083;-82
2024/04/15 11:21:45;;;;;;;;;1.33;1.00;;;;;;;;5421350;26;9275;-81
2024/04/15 11:24:17;;;;;;;;;0.00;0.00;;;;;;;;5441422;26;9243;-80
2024/04/15 11:26:48;;;;;;;;;2.00;2.00;;;;;;;;5437869;26;9216;-81
2024/04/15 11:29:16;;;;;;;;;1.00;1.00;;;;;;;;5442962;26;9237;-81
2024/04/15 11:31:47;;;;;;;;;1.00;1.00;;;;;;;;5433262;26;10028;-81
2024/04/15 11:34:13;;;;;;;;;0.67;0.67;;;;;;;;5445646;26;9106;-80
2024/04/15 11:36:45;;;;;;;;;1.00;1.00;;;;;;;;5419333;26;9317;-79
2024/04/15 11:39:11;;;;;;;;;2.00;0.67;;;;;;;;5443681;26;9072;-80
2024/04/15 11:55:24;;;;;;;;;2.00;0.00;;;;;;;;5433069;26;9536;-79
2024/04/15 11:57:50;;;;;;;;;1.00;0.75;;;;;;;;5422734;26;9452;-79
2024/04/15 12:00:19;;;;;;;;;1.00;1.00;;;;;;;;5449756;26;10218;-80
2024/04/15 12:02:47;;;;;;;;;0.00;0.00;;;;;;;;5450876;26;9511;-80
2024/04/15 12:05:19;;;;;;;;;0.00;0.00;;;;;;;;5444970;26;9422;-81
2024/04/15 12:07:46;;;;;;;;;0.00;0.00;;;;;;;;5440548;26;9441;-81
2024/04/15 12:10:17;;;;;;;;;1.00;1.00;;;;;;;;5427426;26;9471;-79
2024/04/15 12:12:46;;;;;;;;;0.00;0.00;;;;;;;;5427155;26;9337;-79
2024/04/15 12:15:16;;;;;;;;;0.00;0.00;;;;;;;;5437349;26;9942;-81
2024/04/15 12:17:42;;;;;;;;;0.00;0.00;;;;;;;;5417045;26;9417;-80
2024/04/15 12:20:11;;;;;;;;;1.00;1.00;;;;;;;;5448512;26;9470;-81
2024/04/15 12:22:37;;;;;;;;;0.00;0.00;;;;;;;;5425649;26;9530;-81
2024/04/15 12:25:09;;;;;;;;;0.00;0.00;;;;;;;;5415313;26;9435;-80
2024/04/15 12:27:36;;;;;;;;;0.33;0.00;;;;;;;;5439443;26;9415;-80
2024/04/15 12:30:09;;;;;;;;;0.00;0.00;;;;;;;;5420255;26;9336;-80
2024/04/15 12:32:35;;;;;;;;;0.00;0.00;;;;;;;;5429797;26;9408;-80
2024/04/15 12:35:04;;;;;;;;;0.00;0.00;;;;;;;;5448431;26;8926;-81
2024/04/15 12:37:30;;;;;;;;;0.00;0.00;;;;;;;;5437949;26;8966;-81
2024/04/15 12:39:59;;;;;;;;;1.75;0.00;;;;;;;;5437792;26;8823;-80
2024/04/15 12:42:26;;;;;;;;;0.00;0.00;;;;;;;;5438121;26;8808;-80
2024/04/15 12:44:54;;;;;;;;;0.00;0.00;;;;;;;;5438158;26;8824;-81
2024/04/15 12:47:24;;;;;;;;;0.00;0.00;;;;;;;;5437979;26;8812;-81
2024/04/15 12:49:52;;;;;;;;;0.50;0.25;;;;;;;;5448230;26;8844;-81
2024/04/15 12:52:19;;;;;;;;;0.00;0.00;;;;;;;;5431268;26;8824;-82
2024/04/15 12:54:49;;;;;;;;;0.25;0.00;;;;;;;;5427672;26;8773;-82
2024/04/15 12:57:16;;;;;;;;;0.00;0.00;;;;;;;;5446034;26;8847;-82
2024/04/15 12:59:45;;;;;;;;;0.00;0.00;;;;;;;;5449085;26;8936;-82
2024/04/15 13:02:11;;;;;;;;;0.00;0.00;;;;;;;;5438169;26;9620;-82
2024/04/15 13:04:44;;;;;;;;;0.00;0.00;;;;;;;;5417199;26;8840;-81
2024/04/15 13:07:11;;;;;;;;;0.00;0.00;;;;;;;;5426504;26;8898;-82
2024/04/15 13:09:40;;;;;;;;;0.00;0.00;;;;;;;;5427696;26;8836;-81
2024/04/15 13:12:10;;;;;;;;;0.00;0.00;;;;;;;;5416091;26;8982;-82
2024/04/15 13:14:39;;;;;;;;;0.00;0.00;;;;;;;;5420626;26;8968;-81
2024/04/15 13:17:06;;;;;;;;;1.00;1.00;;;;;;;;5448722;26;8828;-82
2024/04/15 13:19:35;;;;;;;;;1.25;0.00;;;;;;;;5446632;26;8954;-81
2024/04/15 13:22:06;;;;;;;;;0.00;0.00;;;;;;;;5434775;26;8890;-82
2024/04/15 13:24:35;;;;;;;;;0.00;0.00;;;;;;;;5423917;26;8812;-82
2024/04/15 13:27:02;;;;;;;;;1.00;0.00;;;;;;;;5432564;26;8923;-80
2024/04/15 13:29:31;;;;;;;;;1.75;0.50;;;;;;;;5431250;26;8828;-82
2024/04/15 13:31:57;;;;;;;;;0.25;0.00;;;;;;;;5449796;26;8785;-81
2024/04/15 13:34:26;;;;;;;;;0.00;0.00;;;;;;;;5432730;26;8820;-82
2024/04/15 13:36:55;;;;;;;;;0.25;0.25;;;;;;;;5436627;26;8873;-82
2024/04/15 13:39:27;;;;;;;;;0.00;0.00;;;;;;;;5448360;26;8800;-83
2024/04/15 13:41:53;;;;;;;;;0.00;0.00;;;;;;;;5443076;26;8867;-83
2024/04/15 13:44:22;;;;;;;;;0.00;0.00;;;;;;;;5441838;26;8832;-82
2024/04/15 13:46:51;;;;;;;;;0.00;0.00;;;;;;;;5438019;26;9204;-82
2024/04/15 13:49:20;;;;;;;;;0.00;0.00;;;;;;;;5447735;26;9719;-82
2024/04/15 13:51:50;;;;;;;;;0.50;0.50;;;;;;;;5438688;26;9942;-82
2024/04/15 13:54:19;;;;;;;;;0.25;0.00;;;;;;;;5446796;26;10223;-82
2024/04/15 13:56:48;;;;;;;;;0.00;0.00;;;;;;;;5433984;26;10436;-82
2024/04/15 13:59:17;;;;;;;;;0.00;0.00;;;;;;;;5452190;26;10586;-82
2024/04/15 14:01:44;;;;;;;;;0.00;0.00;;;;;;;;5452207;26;10457;-83
2024/04/15 14:04:15;;;;;;;;;0.00;0.00;;;;;;;;5453239;26;11101;-82
2024/04/15 14:06:41;;;;;;;;;0.00;0.00;;;;;;;;5430014;26;10765;-81
2024/04/15 14:09:14;;;;;;;;;0.00;0.00;;;;;;;;5433994;26;10781;-81
2024/04/15 14:11:43;;;;;;;;;0.00;0.00;;;;;;;;5420729;26;10695;-81
2024/04/15 14:14:16;;;;;;;;;0.25;0.00;;;;;;;;5417096;26;10591;-82
2024/04/15 14:16:43;;;;;;;;;2.00;0.00;;;;;;;;5442457;26;10519;-83
2024/04/15 14:19:15;;;;;;;;;0.00;0.00;;;;;;;;5416882;26;10412;-82
2024/04/15 14:21:41;;;;;;;;;0.50;0.00;;;;;;;;5428999;26;10376;-83
2024/04/15 14:24:10;;;;;;;;;0.50;0.50;;;;;;;;5430586;26;10366;-84
2024/04/15 14:26:37;;;;;;;;;1.00;0.00;;;;;;;;5431794;26;10526;-83
2024/04/15 14:29:06;;;;;;;;;2.00;0.00;;;;;;;;5451411;26;10303;-82
2024/04/15 14:31:35;;;;;;;;;0.00;0.00;;;;;;;;5451227;26;10225;-84
2024/04/15 14:34:04;;;;;;;;;0.25;0.25;;;;;;;;5451646;26;10477;-84
2024/04/15 14:36:30;;;;;;;;;0.00;0.00;;;;;;;;5421976;26;10254;-83
2024/04/15 14:38:59;;;;;;;;;0.00;0.00;;;;;;;;5433177;26;10175;-84
2024/04/15 14:41:26;;;;;;;;;0.00;0.00;;;;;;;;5452152;26;10106;-85
2024/04/15 14:43:56;;;;;;;;;0.00;0.00;;;;;;;;5431808;26;9871;-84
2024/04/15 14:46:22;;;;;;;;;0.00;0.00;;;;;;;;5433483;26;10085;-85
2024/04/15 14:48:55;;;;;;;;;0.00;0.00;;;;;;;;5449158;26;10170;-83
2024/04/15 14:51:21;;;;;;;;;0.00;0.00;;;;;;;;5449739;26;10023;-84
2024/04/15 14:53:53;;;;;;;;;0.75;0.00;;;;;;;;5431842;26;10130;-84
2024/04/15 14:56:20;;;;;;;;;0.00;0.00;;;;;;;;5434744;26;10199;-85
2024/04/15 14:58:49;;;;;;;;;0.00;0.00;;;;;;;;5449049;26;10157;-83
2024/04/15 15:01:16;;;;;;;;;0.00;0.00;;;;;;;;5449680;26;10063;-85
2024/04/15 15:03:45;;;;;;;;;0.00;0.00;;;;;;;;5449223;26;10108;-86
2024/04/15 15:06:14;;;;;;;;;1.00;0.50;;;;;;;;5448806;26;10917;-83
2024/04/15 15:08:44;;;;;;;;;1.00;1.00;;;;;;;;5442348;26;10140;-86
2024/04/15 15:11:12;;;;;;;;;0.00;0.00;;;;;;;;5440254;26;9909;-81
2024/04/15 15:13:41;;;;;;;;;1.00;1.00;;;;;;;;5450814;26;10507;-81
2024/04/15 15:16:08;;;;;;;;;2.75;2.75;;;;;;;;5450688;26;9764;-83
2024/04/15 15:18:37;;;;;;;;;4.50;2.50;;;;;;;;5444914;26;10043;-83
2024/04/15 15:21:04;;;;;;;;;1.75;1.00;;;;;;;;5451706;26;9869;-84
2024/04/15 15:23:36;;;;;;;;;0.00;0.00;;;;;;;;5450552;26;9525;-84
2024/04/15 15:26:02;;;;;;;;;0.00;0.00;;;;;;;;5449685;26;9303;-82
2024/04/15 15:28:31;;;;;;;;;0.00;0.00;;;;;;;;5452770;26;9398;-82
2024/04/15 15:31:00;;;;;;;;;2.33;1.00;;;;;;;;5439408;26;9097;-83
2024/04/15 15:33:29;;;;;;;;;2.00;0.67;;;;;;;;5450183;26;9270;-83
2024/04/15 15:35:55;;;;;;;;;2.00;0.33;;;;;;;;5449370;26;9203;-83
2024/04/15 15:38:25;;;;;;;;;2.33;2.33;;;;;;;;5435347;26;9322;-83